createdAt,value
2022-10-15T00:01:42.945Z,4.80
2022-10-15T00:04:12.616Z,4.28
2022-10-15T00:06:40.877Z,7.03
2022-10-15T00:09:09.192Z,7.40
2022-10-15T00:11:37.698Z,7.57
2022-10-15T00:14:06.002Z,9.40
2022-10-15T00:16:34.685Z,5.88
2022-10-15T00:19:02.965Z,7.97
2022-10-15T00:21:32.620Z,11.02
2022-10-15T00:24:00.873Z,10.40
2022-10-15T00:26:29.665Z,10.25
2022-10-15T00:28:59.081Z,9.05
2022-10-15T00:31:28.297Z,8.60
2022-10-15T00:33:57.328Z,11.95
2022-10-15T00:36:26.851Z,13.70
2022-10-15T00:38:56.870Z,12.05
2022-10-15T00:41:26.124Z,14.18
2022-10-15T00:43:55.183Z,16.65
2022-10-15T00:46:25.717Z,9.98
2022-10-15T00:48:57.504Z,16.20
2022-10-15T00:51:29.043Z,15.10
2022-10-15T00:53:58.733Z,12.82
2022-10-15T00:56:28.717Z,16.33
2022-10-15T00:58:57.860Z,18.67
2022-10-15T01:01:26.735Z,9.35
2022-10-15T01:03:56.312Z,16.02
2022-10-15T01:06:24.830Z,17.63
2022-10-15T01:08:53.644Z,15.75
2022-10-15T01:11:38.398Z,19.02
2022-10-15T01:14:11.371Z,12.20
2022-10-15T01:16:42.102Z,15.32
2022-10-15T01:19:15.235Z,18.40
2022-10-15T01:21:46.281Z,15.23
2022-10-15T01:24:29.980Z,15.88
2022-10-15T01:27:13.086Z,12.80
2022-10-15T01:29:50.106Z,19.48
2022-10-15T01:32:23.532Z,16.38
2022-10-15T01:34:55.100Z,20.42
2022-10-15T01:37:26.394Z,21.95
2022-10-15T01:39:57.978Z,21.20
2022-10-15T01:42:29.953Z,20.85
2022-10-15T01:45:01.097Z,20.65
2022-10-15T01:47:32.651Z,21.58
2022-10-15T01:50:02.114Z,19.48
2022-10-15T01:52:32.000Z,20.02
2022-10-15T01:55:01.387Z,22.75
2022-10-15T01:57:31.440Z,17.20
2022-10-15T01:59:59.967Z,23.58
2022-10-15T02:02:28.227Z,16.52
2022-10-15T02:04:57.811Z,22.38
2022-10-15T02:07:33.516Z,16.02
2022-10-15T02:10:05.880Z,19.85
2022-10-15T02:12:39.002Z,11.82
2022-10-15T02:15:09.532Z,20.48
2022-10-15T02:17:40.505Z,22.25
2022-10-15T02:20:14.319Z,24.42
2022-10-15T02:22:45.798Z,20.95
2022-10-15T02:25:17.042Z,19.88
2022-10-15T02:27:46.549Z,22.17
2022-10-15T02:30:15.155Z,21.35
2022-10-15T02:32:44.381Z,23.67
2022-10-15T02:35:14.153Z,15.48
2022-10-15T02:37:48.952Z,18.90
2022-10-15T02:40:17.303Z,19.45
2022-10-15T02:42:45.600Z,22.85
2022-10-15T02:45:13.894Z,22.17
2022-10-15T02:47:42.138Z,22.95
2022-10-15T02:50:10.757Z,20.50
2022-10-15T02:52:40.393Z,21.60
2022-10-15T02:55:08.898Z,22.05
2022-10-15T02:57:37.172Z,22.70
2022-10-15T03:00:05.866Z,25.60
2022-10-15T03:02:34.113Z,23.73
2022-10-15T03:05:02.347Z,21.60
2022-10-15T03:07:30.641Z,21.95
2022-10-15T03:10:00.320Z,22.50
2022-10-15T03:12:28.593Z,23.52
2022-10-15T03:14:56.881Z,19.45
2022-10-15T03:17:25.333Z,23.10
2022-10-15T03:19:53.861Z,22.23
2022-10-15T03:22:22.104Z,22.27
2022-10-15T03:24:50.370Z,14.27
2022-10-15T03:27:20.325Z,22.40
2022-10-15T03:29:48.733Z,19.50
2022-10-15T03:32:17.061Z,18.67
2022-10-15T03:34:45.291Z,23.20
2022-10-15T03:37:13.578Z,22.75
2022-10-15T03:39:42.166Z,22.45
2022-10-15T03:42:10.581Z,23.63
2022-10-15T03:44:40.204Z,21.67
2022-10-15T03:47:08.466Z,19.45
2022-10-15T03:49:36.733Z,21.50
2022-10-15T03:52:05.026Z,21.23
2022-10-15T03:54:33.286Z,20.98
2022-10-15T03:57:01.553Z,20.60
2022-10-15T03:59:29.831Z,20.38
2022-10-15T04:01:59.475Z,20.60
2022-10-15T04:04:27.698Z,19.90
2022-10-15T04:06:55.973Z,18.80
2022-10-15T04:09:24.243Z,17.58
2022-10-15T04:11:52.541Z,11.95
2022-10-15T04:14:21.067Z,19.20
2022-10-15T04:16:49.336Z,17.25
2022-10-15T04:19:18.994Z,20.55
2022-10-15T04:21:47.241Z,20.88
2022-10-15T04:24:15.497Z,19.48
2022-10-15T04:26:43.777Z,20.17
2022-10-15T04:29:12.034Z,13.60
2022-10-15T04:31:40.314Z,18.67
2022-10-15T04:34:08.687Z,19.70
2022-10-15T04:36:39.089Z,20.27
2022-10-15T04:39:09.758Z,21.38
2022-10-15T04:41:40.554Z,18.02
2022-10-15T04:44:09.052Z,11.35
2022-10-15T04:46:37.314Z,10.98
2022-10-15T04:49:05.568Z,8.80
2022-10-15T04:51:33.845Z,12.38
2022-10-15T04:54:05.914Z,11.13
2022-10-15T04:56:34.168Z,8.32
2022-10-15T04:59:02.432Z,10.20
2022-10-15T05:01:30.675Z,7.68
2022-10-15T05:03:58.963Z,10.57
2022-10-15T05:06:27.231Z,7.43
2022-10-15T05:08:55.527Z,8.73
2022-10-15T05:11:25.862Z,10.32
2022-10-15T05:13:54.775Z,9.00
2022-10-15T05:16:24.302Z,8.52
2022-10-15T05:18:53.305Z,8.07
2022-10-15T05:21:21.777Z,8.82
2022-10-15T05:23:50.309Z,14.48
2022-10-15T05:26:19.789Z,14.50
2022-10-15T05:28:49.532Z,6.18
2022-10-15T05:31:19.319Z,10.68
2022-10-15T05:33:48.044Z,12.45
2022-10-15T05:36:17.765Z,12.63
2022-10-15T05:38:46.101Z,13.52
2022-10-15T05:41:14.441Z,11.10
2022-10-15T05:43:42.692Z,5.93
2022-10-15T05:46:12.353Z,13.93
2022-10-15T05:48:40.625Z,15.40
2022-10-15T05:51:09.537Z,13.50
2022-10-15T05:53:37.952Z,17.02
2022-10-15T05:56:06.709Z,16.02
2022-10-15T05:58:37.371Z,17.15
2022-10-15T06:01:07.089Z,16.13
2022-10-15T06:03:37.140Z,16.75
2022-10-15T06:06:05.643Z,17.60
2022-10-15T06:08:33.974Z,16.90
2022-10-15T06:11:06.991Z,16.75
2022-10-15T06:16:05.914Z,16.20
2022-10-15T06:18:34.216Z,15.75
2022-10-15T06:21:03.896Z,14.35
2022-10-15T06:23:32.341Z,14.15
2022-10-15T06:26:03.549Z,12.63
2022-10-15T06:28:32.039Z,14.45
2022-10-15T06:31:00.810Z,14.27
2022-10-15T06:33:29.360Z,12.65
2022-10-15T06:35:57.865Z,12.82
2022-10-15T06:38:27.492Z,12.82
2022-10-15T06:40:55.822Z,12.30
2022-10-15T06:43:24.763Z,12.60
2022-10-15T06:45:53.272Z,12.23
2022-10-15T06:48:21.538Z,12.25
2022-10-15T06:50:49.837Z,11.98
2022-10-15T06:53:18.093Z,11.63
2022-10-15T06:55:47.745Z,11.65
2022-10-15T06:58:16.002Z,10.40
2022-10-15T07:00:44.309Z,11.35
2022-10-15T07:03:12.613Z,10.02
2022-10-15T07:05:40.879Z,9.15
2022-10-15T07:08:09.156Z,9.43
2022-10-15T07:10:37.457Z,8.50
2022-10-15T07:13:07.122Z,8.70
2022-10-15T07:15:35.401Z,8.45
2022-10-15T07:18:04.020Z,7.57
2022-10-15T07:20:32.791Z,7.55
2022-10-15T07:23:03.106Z,6.43
2022-10-15T07:25:31.526Z,7.35
2022-10-15T07:27:59.841Z,6.30
2022-10-15T07:30:29.477Z,6.43
2022-10-15T07:32:57.984Z,6.30
2022-10-15T07:35:26.437Z,5.95
2022-10-15T07:37:54.731Z,5.30
2022-10-15T07:40:23.041Z,5.57
2022-10-15T07:42:54.547Z,5.40
2022-10-15T07:45:22.893Z,5.25
2022-10-15T07:47:52.572Z,4.72
2022-10-15T07:50:21.305Z,5.25
2022-10-15T07:52:49.726Z,4.63
2022-10-15T07:55:18.071Z,4.80
2022-10-15T07:57:46.595Z,4.90
2022-10-15T08:00:14.974Z,4.32
2022-10-15T08:02:43.301Z,4.05
2022-10-15T08:05:12.978Z,3.90
2022-10-15T08:07:41.948Z,3.92
2022-10-15T08:10:11.943Z,3.30
2022-10-15T08:12:40.249Z,3.35
2022-10-15T08:15:09.031Z,3.42
2022-10-15T08:17:37.307Z,3.30
2022-10-15T08:20:06.179Z,3.38
2022-10-15T08:22:36.237Z,3.28
2022-10-15T08:25:04.755Z,3.28
2022-10-15T08:27:33.173Z,3.38
2022-10-15T08:30:02.009Z,3.72
2022-10-15T08:32:30.324Z,3.35
2022-10-15T08:34:58.637Z,3.17
2022-10-15T08:37:26.984Z,3.50
2022-10-15T08:39:56.622Z,3.85
2022-10-15T08:42:30.367Z,3.10
2022-10-15T08:45:00.237Z,2.90
2022-10-15T08:47:30.876Z,2.97
2022-10-15T08:50:00.616Z,2.80
2022-10-15T08:52:37.762Z,2.58
2022-10-15T08:55:07.937Z,2.50
2022-10-15T08:57:39.997Z,1.70
2022-10-15T09:00:14.016Z,2.35
2022-10-15T09:02:46.509Z,1.98
2022-10-15T09:05:23.651Z,2.28
2022-10-15T09:07:54.922Z,1.90
2022-10-15T09:10:32.816Z,2.00
2022-10-15T09:13:03.029Z,1.58
2022-10-15T09:15:34.217Z,1.23
2022-10-15T09:18:02.561Z,1.30
2022-10-15T09:20:34.433Z,1.15
2022-10-15T09:23:02.759Z,1.10
2022-10-15T09:25:35.211Z,1.10
2022-10-15T09:28:08.572Z,0.90
2022-10-15T09:30:39.573Z,0.93
2022-10-15T09:33:09.257Z,0.85
2022-10-15T09:35:40.673Z,0.98
2022-10-15T09:38:16.056Z,0.90
2022-10-15T09:40:53.098Z,0.80
2022-10-15T09:43:35.371Z,1.08
2022-10-15T09:46:03.979Z,0.98
2022-10-15T09:48:34.087Z,1.08
2022-10-15T09:51:06.293Z,0.90
2022-10-15T09:53:46.923Z,0.98
2022-10-15T09:56:18.538Z,0.95
2022-10-15T09:58:51.550Z,1.00
2022-10-15T10:01:21.059Z,1.08
2022-10-15T10:03:53.816Z,1.00
2022-10-15T10:06:22.859Z,1.20
2022-10-15T10:08:54.717Z,1.25
2022-10-15T10:11:25.007Z,1.10
2022-10-15T10:13:55.322Z,1.20
2022-10-15T10:16:24.026Z,1.30
2022-10-15T10:19:06.406Z,1.20
2022-10-15T10:21:36.053Z,1.40
2022-10-15T10:24:19.174Z,1.17
2022-10-15T10:26:49.154Z,1.33
2022-10-15T10:29:32.960Z,1.45
2022-10-15T10:32:10.841Z,1.40
2022-10-15T10:34:39.144Z,1.33
2022-10-15T10:37:10.151Z,1.40
2022-10-15T10:39:38.430Z,1.30
2022-10-15T10:42:08.967Z,1.15
2022-10-15T10:44:40.470Z,1.40
2022-10-15T10:47:13.408Z,0.95
2022-10-15T10:49:42.730Z,1.27
2022-10-15T10:52:20.970Z,0.98
2022-10-15T10:54:50.110Z,1.10
2022-10-15T10:57:23.693Z,1.17
2022-10-15T10:59:53.158Z,0.90
2022-10-15T11:02:21.705Z,0.90
2022-10-15T11:04:50.027Z,0.98
2022-10-15T11:07:22.430Z,0.80
2022-10-15T11:09:55.462Z,1.00
2022-10-15T11:12:39.535Z,1.00
2022-10-15T11:15:19.345Z,0.80
2022-10-15T11:17:51.699Z,0.77
2022-10-15T11:20:39.966Z,1.10
2022-10-15T11:23:19.899Z,1.00
2022-10-15T11:25:54.479Z,0.80
2022-10-15T11:28:29.252Z,0.95
2022-10-15T11:31:01.864Z,0.90
2022-10-15T11:33:36.526Z,0.80
2022-10-15T11:36:12.448Z,0.80
2022-10-15T11:38:43.337Z,1.13
2022-10-15T11:41:21.488Z,1.08
2022-10-15T11:43:56.051Z,1.40
2022-10-15T11:46:29.315Z,0.70
2022-10-15T11:49:06.370Z,0.88
2022-10-15T11:51:42.246Z,0.98
2022-10-15T11:54:19.105Z,0.93
2022-10-15T11:56:49.252Z,1.10
2022-10-15T11:59:33.734Z,1.00
2022-10-15T12:02:05.651Z,1.30
2022-10-15T12:04:38.102Z,0.80
2022-10-15T12:07:08.026Z,1.10
2022-10-15T12:09:38.608Z,1.10
2022-10-15T12:12:10.752Z,0.90
2022-10-15T12:14:41.735Z,0.90
2022-10-15T12:17:15.976Z,1.10
2022-10-15T12:19:47.957Z,0.98
2022-10-15T12:22:33.963Z,0.98
2022-10-15T12:25:03.007Z,1.00
2022-10-15T12:27:38.390Z,0.85
2022-10-15T12:30:14.422Z,0.70
2022-10-15T12:32:46.381Z,0.70
2022-10-15T12:35:27.062Z,0.80
2022-10-15T12:37:55.371Z,0.90
2022-10-15T12:40:28.545Z,0.80
2022-10-15T12:43:00.049Z,0.88
2022-10-15T12:45:35.681Z,0.90
2022-10-15T12:48:20.304Z,0.80
2022-10-15T12:50:48.569Z,1.20
2022-10-15T12:53:34.378Z,1.00
2022-10-15T12:58:34.496Z,0.60
2022-10-15T13:01:08.108Z,1.00
2022-10-15T13:03:39.502Z,0.60
2022-10-15T13:06:25.511Z,0.77
2022-10-15T13:08:55.293Z,0.73
2022-10-15T13:11:25.809Z,0.52
2022-10-15T13:13:57.029Z,0.60
2022-10-15T13:16:25.370Z,0.80
2022-10-15T13:18:57.196Z,0.50
2022-10-15T13:21:46.401Z,0.32
2022-10-15T13:24:17.916Z,0.63
2022-10-15T13:26:46.274Z,0.45
2022-10-15T13:29:16.872Z,0.45
2022-10-15T13:31:46.057Z,0.32
2022-10-15T13:34:21.051Z,0.60
2022-10-15T13:36:49.886Z,0.60
2022-10-15T13:39:30.741Z,0.30
2022-10-15T13:42:08.365Z,0.55
2022-10-15T13:44:36.920Z,0.80
2022-10-15T13:47:05.799Z,0.93
2022-10-15T13:49:36.551Z,0.80
2022-10-15T13:52:04.898Z,0.63
2022-10-15T13:54:33.181Z,0.70
2022-10-15T13:57:02.568Z,0.80
2022-10-15T13:59:31.844Z,0.88
2022-10-15T14:02:01.305Z,0.98
2022-10-15T14:04:30.222Z,0.93
2022-10-15T14:07:03.194Z,0.77
2022-10-15T14:09:33.233Z,0.85
2022-10-15T14:12:03.096Z,0.93
2022-10-15T14:14:33.538Z,0.82
2022-10-15T14:17:02.454Z,0.77
2022-10-15T14:19:31.821Z,0.80
2022-10-15T14:22:02.568Z,0.88
2022-10-15T14:24:33.466Z,0.93
2022-10-15T14:27:06.204Z,0.80
2022-10-15T14:29:38.341Z,1.00
2022-10-15T14:32:20.449Z,0.95
2022-10-15T14:34:49.127Z,0.88
2022-10-15T14:37:32.712Z,1.00
2022-10-15T14:40:05.669Z,0.82
2022-10-15T14:42:34.565Z,0.90
2022-10-15T14:45:13.219Z,1.00
2022-10-15T14:47:42.592Z,1.08
2022-10-15T14:50:12.162Z,0.90
2022-10-15T14:52:45.558Z,1.10
2022-10-15T14:55:17.077Z,0.93
2022-10-15T14:57:48.162Z,1.10
2022-10-15T15:00:19.302Z,1.63
2022-10-15T15:02:47.636Z,1.17
2022-10-15T15:05:21.301Z,1.00
2022-10-15T15:07:51.118Z,1.48
2022-10-15T15:10:19.511Z,1.20
2022-10-15T15:12:50.826Z,1.23
2022-10-15T15:15:20.301Z,0.90
2022-10-15T15:17:48.859Z,1.50
2022-10-15T15:20:20.042Z,1.00
2022-10-15T15:22:50.292Z,1.30
2022-10-15T15:25:20.952Z,1.23
2022-10-15T15:27:49.298Z,0.93
2022-10-15T15:30:18.981Z,1.20
2022-10-15T15:32:47.993Z,2.13
2022-10-15T15:35:20.788Z,1.25
2022-10-15T15:37:49.166Z,1.40
2022-10-15T15:40:17.522Z,1.38
2022-10-15T15:42:47.584Z,1.30
2022-10-15T15:45:19.382Z,1.08
2022-10-15T15:47:47.895Z,1.00
2022-10-15T15:50:16.207Z,1.02
2022-10-15T15:52:44.489Z,1.40
2022-10-15T15:55:13.143Z,0.90
2022-10-15T15:57:41.427Z,0.90
2022-10-15T16:00:11.886Z,0.80
2022-10-15T16:02:40.777Z,1.08
2022-10-15T16:05:09.740Z,1.13
2022-10-15T16:07:38.139Z,1.30
2022-10-15T16:10:09.276Z,1.15
2022-10-15T16:12:37.542Z,1.08
2022-10-15T16:15:07.915Z,1.35
2022-10-15T16:17:40.376Z,1.10
2022-10-15T16:20:09.239Z,1.13
2022-10-15T16:22:37.469Z,1.10
2022-10-15T16:25:06.012Z,1.00
2022-10-15T16:27:34.523Z,1.38
2022-10-15T16:30:02.943Z,1.50
2022-10-15T16:32:31.274Z,1.40
2022-10-15T16:35:00.877Z,1.23
2022-10-15T16:37:29.231Z,1.45
2022-10-15T16:39:58.236Z,1.33
2022-10-15T16:42:26.520Z,1.42
2022-10-15T16:44:54.846Z,1.35
2022-10-15T16:47:23.435Z,1.70
2022-10-15T16:49:51.936Z,1.50
2022-10-15T16:52:21.579Z,1.20
2022-10-15T16:54:49.891Z,1.55
2022-10-15T16:57:18.167Z,1.75
2022-10-15T16:59:46.489Z,1.75
2022-10-15T17:02:14.733Z,1.63
2022-10-15T17:04:42.984Z,1.63
2022-10-15T17:07:11.278Z,1.10
2022-10-15T17:09:40.958Z,1.50
2022-10-15T17:12:09.269Z,1.58
2022-10-15T17:14:37.660Z,1.52
2022-10-15T17:17:07.655Z,1.67
2022-10-15T17:19:36.101Z,2.00
2022-10-15T17:22:04.535Z,2.58
2022-10-15T17:24:32.846Z,2.17
2022-10-15T17:27:02.469Z,2.05
2022-10-15T17:29:32.562Z,1.80
2022-10-15T17:32:05.893Z,1.92
2022-10-15T17:34:34.305Z,2.20
2022-10-15T17:37:02.274Z,2.00
2022-10-15T17:39:30.246Z,2.15
2022-10-15T17:41:58.326Z,2.10
2022-10-15T17:44:27.696Z,1.60
2022-10-15T17:46:55.679Z,2.00
2022-10-15T17:49:23.660Z,2.63
2022-10-15T17:51:51.635Z,2.40
2022-10-15T17:54:20.263Z,2.28
2022-10-15T17:56:48.653Z,2.15
2022-10-15T17:59:16.723Z,1.90
2022-10-15T18:02:01.500Z,2.10
2022-10-15T18:04:30.191Z,2.03
2022-10-15T18:06:58.398Z,2.65
2022-10-15T18:09:26.640Z,2.10
2022-10-15T18:11:54.727Z,2.67
2022-10-15T18:14:22.959Z,2.78
2022-10-15T18:16:52.368Z,3.10
2022-10-15T18:19:20.352Z,2.88
2022-10-15T18:21:49.763Z,2.10
2022-10-15T18:24:21.374Z,2.47
2022-10-15T18:26:50.163Z,2.47
2022-10-15T18:29:18.272Z,2.63
2022-10-15T18:31:46.749Z,3.33
2022-10-15T18:34:16.332Z,3.42
2022-10-15T18:36:44.573Z,3.20
2022-10-15T18:39:12.603Z,3.60
2022-10-15T18:41:41.110Z,4.13
2022-10-15T18:44:14.803Z,3.97
2022-10-15T18:46:44.895Z,3.42
2022-10-15T18:49:16.068Z,3.40
2022-10-15T18:51:46.053Z,3.08
2022-10-15T18:54:14.400Z,2.78
2022-10-15T18:56:42.357Z,3.60
2022-10-15T18:59:10.715Z,3.22
2022-10-15T19:01:41.703Z,3.83
2022-10-15T19:04:11.676Z,2.80
2022-10-15T19:06:42.536Z,2.85
2022-10-15T19:09:13.279Z,2.58
2022-10-15T19:11:42.839Z,3.20
2022-10-15T19:14:11.191Z,4.93
2022-10-15T19:16:39.189Z,5.97
2022-10-15T19:19:07.424Z,4.22
2022-10-15T19:21:37.501Z,3.97
2022-10-15T19:24:07.314Z,4.00
2022-10-15T19:26:35.883Z,3.38
2022-10-15T19:29:04.778Z,4.03
2022-10-15T19:31:35.935Z,3.75
2022-10-15T19:34:04.077Z,4.53
2022-10-15T19:36:35.326Z,27.25
2022-10-15T19:39:07.021Z,10.70
2022-10-15T19:41:37.148Z,14.18
2022-10-15T19:44:07.847Z,14.15
2022-10-15T19:46:35.919Z,21.30
2022-10-15T19:49:04.228Z,27.30
2022-10-15T19:51:32.318Z,18.33
2022-10-15T19:54:00.286Z,17.70
2022-10-15T19:56:30.421Z,15.50
2022-10-15T19:58:59.770Z,14.88
2022-10-15T20:01:29.013Z,8.27
2022-10-15T20:04:01.611Z,9.90
2022-10-15T20:06:33.223Z,10.57
2022-10-15T20:09:02.110Z,10.50
2022-10-15T20:11:31.725Z,6.60
2022-10-15T20:13:59.861Z,6.07
2022-10-15T20:16:32.453Z,4.57
2022-10-15T20:19:02.598Z,3.47
2022-10-15T20:21:30.679Z,4.10
2022-10-15T20:23:58.843Z,4.50
2022-10-15T20:26:26.865Z,4.82
2022-10-15T20:28:56.318Z,5.30
2022-10-15T20:31:28.556Z,4.25
2022-10-15T20:33:56.663Z,3.65
2022-10-15T20:36:27.315Z,4.38
2022-10-15T20:38:57.350Z,3.35
2022-10-15T20:41:25.797Z,3.65
2022-10-15T20:43:56.968Z,3.45
2022-10-15T20:46:28.635Z,4.22
2022-10-15T20:49:02.169Z,3.70
2022-10-15T20:51:33.109Z,4.22
2022-10-15T20:54:02.283Z,5.13
2022-10-15T20:56:30.271Z,4.03
2022-10-15T20:58:59.560Z,3.75
2022-10-15T21:01:27.565Z,4.30
2022-10-15T21:03:55.541Z,4.18
2022-10-15T21:06:23.796Z,3.85
2022-10-15T21:08:51.828Z,3.35
2022-10-15T21:11:19.784Z,3.50
2022-10-15T21:13:47.726Z,3.22
2022-10-15T21:16:17.396Z,3.40
2022-10-15T21:18:45.394Z,3.35
2022-10-15T21:21:15.484Z,3.33
2022-10-15T21:23:43.820Z,3.17
2022-10-15T21:26:13.310Z,2.88
2022-10-15T21:28:41.935Z,2.80
2022-10-15T21:31:12.509Z,3.00
2022-10-15T21:33:42.644Z,3.20
2022-10-15T21:36:12.447Z,2.92
2022-10-15T21:38:40.494Z,2.95
2022-10-15T21:41:08.676Z,3.20
2022-10-15T21:43:37.028Z,3.40
2022-10-15T21:46:06.868Z,3.22
2022-10-15T21:48:36.526Z,3.15
2022-10-15T21:51:09.367Z,3.25
2022-10-15T21:53:37.830Z,3.50
2022-10-15T21:56:07.999Z,3.38
2022-10-15T21:58:37.778Z,2.80
2022-10-15T22:01:10.156Z,2.90
2022-10-15T22:03:38.727Z,2.88
2022-10-15T22:06:08.750Z,2.90
2022-10-15T22:08:37.279Z,2.90
2022-10-15T22:11:09.295Z,3.20
2022-10-15T22:13:37.626Z,3.22
2022-10-15T22:16:06.206Z,2.90
2022-10-15T22:18:34.493Z,2.70
2022-10-15T22:21:15.060Z,2.67
2022-10-15T22:23:43.895Z,3.28
2022-10-15T22:26:12.161Z,3.42
2022-10-15T22:28:40.523Z,3.55
2022-10-15T22:31:10.205Z,3.83
2022-10-15T22:33:38.754Z,4.00
2022-10-15T22:36:13.115Z,3.58
2022-10-15T22:38:42.888Z,3.17
2022-10-15T22:41:11.535Z,3.53
2022-10-15T22:43:39.846Z,2.70
2022-10-15T22:46:08.655Z,3.33
2022-10-15T22:48:37.766Z,2.78
2022-10-15T22:51:06.524Z,2.53
2022-10-15T22:53:34.845Z,2.80
2022-10-15T22:56:05.263Z,2.60
2022-10-15T22:58:34.220Z,2.35
2022-10-15T23:01:08.211Z,2.42
2022-10-15T23:03:36.893Z,2.13
2022-10-15T23:06:05.366Z,2.17
2022-10-15T23:08:33.944Z,2.00
2022-10-15T23:11:10.433Z,2.20
2022-10-15T23:13:38.991Z,2.45
2022-10-15T23:16:08.142Z,2.10
2022-10-15T23:18:36.438Z,2.00
2022-10-15T23:21:06.131Z,1.80
2022-10-15T23:23:34.622Z,2.38
2022-10-15T23:26:02.866Z,1.90
2022-10-15T23:28:32.508Z,1.92
2022-10-15T23:31:00.776Z,2.05
2022-10-15T23:33:29.025Z,2.33
2022-10-15T23:36:01.286Z,2.17
2022-10-15T23:38:29.847Z,1.77
2022-10-15T23:41:01.658Z,1.65
2022-10-15T23:43:29.924Z,1.67
2022-10-15T23:45:59.820Z,1.95
2022-10-15T23:48:28.182Z,1.75
2022-10-15T23:51:00.815Z,1.73
2022-10-15T23:53:32.853Z,1.92
2022-10-15T23:56:02.891Z,1.70
2022-10-15T23:58:32.153Z,1.80
